Time;durP1;ratioP1;P1;durP2;ratioP2;P2;SDS_P1;SDS_P2;PMS_P1;PMS_P2;Temp;Humidity;BMP_temperature;BMP_pressure;BME280_temperature;BME280_humidity;BME280_pressure;Samples;Min_cycle;Max_cycle;Signal;HPM_P1;HPM_P2
2022/10/01 00:00:49;;;;;;;;;;;13.80;99.90;;;;;;5036716;28;19943;-84
2022/10/01 00:03:15;;;;;;;;;;;13.80;99.90;;;;;;5036928;28;20241;-84
2022/10/01 00:05:41;;;;;;;;;;;13.80;99.90;;;;;;5036465;28;19913;-85
2022/10/01 00:08:06;;;;;;;;;;;13.80;99.90;;;;;;5054350;28;19916;-85
2022/10/01 00:10:32;;;;;;;;;;;13.80;99.90;;;;;;5036511;28;19909;-85
2022/10/01 00:12:57;;;;;;;;;;;13.80;99.90;;;;;;5036549;28;20265;-85
2022/10/01 00:15:25;;;;;;;;;;;13.70;99.90;;;;;;5036417;28;20272;-85
2022/10/01 00:17:50;;;;;;;;;;;13.70;99.90;;;;;;5036126;28;19909;-85
2022/10/01 00:20:17;;;;;;;;;;;13.60;99.90;;;;;;5054279;28;19931;-85
2022/10/01 00:22:42;;;;;;;;;;;13.50;99.90;;;;;;5036303;28;19909;-84
2022/10/01 00:25:08;;;;;;;;;;;13.50;99.90;;;;;;5036238;28;19922;-84
2022/10/01 00:27:34;;;;;;;;;;;13.20;99.90;;;;;;5036016;28;19909;-83
2022/10/01 00:30:02;;;;;;;;;;;13.00;99.90;;;;;;5054289;28;19908;-83
2022/10/01 00:32:31;;;;;;;;;;;12.80;99.90;;;;;;5035921;28;19978;-83
2022/10/01 00:34:59;;;;;;;;;;;12.70;99.90;;;;;;5053978;28;19909;-83
2022/10/01 00:37:25;;;;;;;;;;;12.70;99.90;;;;;;5075239;22;20241;-81
2022/10/01 00:39:50;;;;;;;;;;;12.70;99.90;;;;;;5034476;28;19924;-80
2022/10/01 00:42:17;;;;;;;;;;;12.70;99.90;;;;;;5034052;28;19909;-81
2022/10/01 00:44:43;;;;;;;;;;;12.70;99.90;;;;;;5033887;28;19913;-81
2022/10/01 00:47:17;;;;;;;;;;;12.70;99.90;;;;;;5034669;28;20008;-81
2022/10/01 00:49:43;;;;;;;;;;;12.70;99.90;;;;;;5052643;28;20007;-80
2022/10/01 00:52:12;;;;;;;;;;;12.80;99.90;;;;;;5054856;28;20391;-79
2022/10/01 00:54:46;;;;;;;;;;;12.70;99.90;;;;;;5053874;28;19916;-79
2022/10/01 01:05:28;;;;;;;;;;;12.60;99.90;;;;;;5053977;28;19916;-80
2022/10/01 01:08:26;;;;;;;;;;;;;;;;;;;;;
2022/10/01 01:11:06;;;;;;;;;;;12.50;99.90;;;;;;5027239;28;19913;-80
2022/10/01 01:13:39;;;;;;;;;;;12.40;99.90;;;;;;5078808;22;19921;-83
2022/10/01 01:16:11;;;;;;;;;;;12.40;99.90;;;;;;5015191;28;20000;-83
2022/10/01 01:18:41;;;;;;;;;;;12.40;99.90;;;;;;5015426;28;19915;-83
2022/10/01 01:21:12;;;;;;;;;;;12.40;99.90;;;;;;5015687;28;20364;-83
2022/10/01 01:23:45;;;;;;;;;;;12.30;99.90;;;;;;5032979;28;19909;-84
2022/10/01 01:26:20;;;;;;;;;;;12.30;99.90;;;;;;5032752;28;19909;-82
2022/10/01 01:28:49;;;;;;;;;;;12.10;99.90;;;;;;5015193;28;19910;-84
2022/10/01 01:31:18;;;;;;;;;;;12.10;99.90;;;;;;5015162;28;19915;-83
2022/10/01 01:33:45;;;;;;;;;;;12.10;99.90;;;;;;5015196;28;20287;-83
2022/10/01 01:36:17;;;;;;;;;;;12.00;99.90;;;;;;5014935;28;19916;-84
2022/10/01 01:38:44;;;;;;;;;;;12.00;99.90;;;;;;5014516;28;19916;-83
2022/10/01 01:41:11;;;;;;;;;;;12.10;99.90;;;;;;5015114;28;19959;-83
2022/10/01 01:43:41;;;;;;;;;;;12.10;99.90;;;;;;5014968;28;20004;-84
2022/10/01 01:46:09;;;;;;;;;;;12.10;99.90;;;;;;5014757;28;19910;-84
2022/10/01 01:48:36;;;;;;;;;;;12.10;99.90;;;;;;5015066;28;20016;-84
2022/10/01 01:51:05;;;;;;;;;;;12.00;99.90;;;;;;5014873;28;19958;-83
2022/10/01 01:53:31;;;;;;;;;;;12.00;99.90;;;;;;5014787;28;19910;-84
2022/10/01 01:55:56;;;;;;;;;;;12.00;99.90;;;;;;5014664;28;20276;-84
2022/10/01 01:58:25;;;;;;;;;;;11.90;99.90;;;;;;5014992;28;19913;-84
2022/10/01 02:00:53;;;;;;;;;;;11.90;99.90;;;;;;5014827;28;19909;-83
2022/10/01 02:03:20;;;;;;;;;;;11.90;99.90;;;;;;5032511;28;20328;-83
2022/10/01 02:05:55;;;;;;;;;;;12.00;99.90;;;;;;5032242;28;20323;-84
2022/10/01 02:08:20;;;;;;;;;;;12.00;99.90;;;;;;5014836;28;19916;-84
2022/10/01 02:10:46;;;;;;;;;;;12.00;99.90;;;;;;5014825;28;20272;-83
2022/10/01 02:13:11;;;;;;;;;;;12.00;99.90;;;;;;5014642;28;20299;-84
2022/10/01 02:15:40;;;;;;;;;;;11.90;99.90;;;;;;5032304;28;20315;-83
2022/10/01 02:18:29;;;;;;;;;;;11.90;99.90;;;;;;5014894;28;20280;-84
2022/10/01 02:21:07;;;;;;;;;;;11.80;99.90;;;;;;5014810;28;19909;-83
2022/10/01 02:23:34;;;;;;;;;;;11.70;99.90;;;;;;5032403;28;19909;-84
2022/10/01 02:26:03;;;;;;;;;;;11.70;99.90;;;;;;5014349;28;19909;-84
2022/10/01 02:28:30;;;;;;;;;;;11.60;99.90;;;;;;5032211;28;19910;-84
2022/10/01 02:30:56;;;;;;;;;;;11.70;99.90;;;;;;5014573;28;19992;-83
2022/10/01 02:33:28;;;;;;;;;;;11.90;99.90;;;;;;5014358;28;19972;-83
2022/10/01 02:35:55;;;;;;;;;;;12.00;99.90;;;;;;5014300;28;19940;-82
2022/10/01 02:38:21;;;;;;;;;;;11.80;99.90;;;;;;5032390;28;19917;-83
2022/10/01 02:40:47;;;;;;;;;;;11.80;99.90;;;;;;5014495;28;20292;-84
2022/10/01 02:43:18;;;;;;;;;;;11.80;99.90;;;;;;5014749;28;19952;-83
2022/10/01 02:45:46;;;;;;;;;;;11.80;99.90;;;;;;5031940;28;20388;-83
2022/10/01 02:48:12;;;;;;;;;;;11.80;99.90;;;;;;5014401;28;20007;-83
2022/10/01 02:50:51;;;;;;;;;;;11.80;99.90;;;;;;5016426;28;20376;-83
2022/10/01 02:53:27;;;;;;;;;;;11.80;99.90;;;;;;5035754;28;20446;-83
2022/10/01 02:55:55;;;;;;;;;;;12.00;99.90;;;;;;5017677;28;20019;-83
2022/10/01 02:58:20;;;;;;;;;;;12.10;99.90;;;;;;5018267;28;19917;-84
2022/10/01 03:00:46;;;;;;;;;;;12.20;99.90;;;;;;5019130;28;19909;-84
2022/10/01 03:03:11;;;;;;;;;;;12.10;99.90;;;;;;5019173;28;19909;-83
2022/10/01 03:05:37;;;;;;;;;;;12.20;99.90;;;;;;5017965;28;19909;-83
2022/10/01 03:08:02;;;;;;;;;;;12.20;99.90;;;;;;5018275;28;19921;-83
2022/10/01 03:10:28;;;;;;;;;;;12.20;99.90;;;;;;5018114;28;19916;-82
2022/10/01 03:12:54;;;;;;;;;;;12.20;99.90;;;;;;5018088;28;20433;-83
2022/10/01 03:15:19;;;;;;;;;;;12.30;99.90;;;;;;5017871;28;19947;-83
2022/10/01 03:17:49;;;;;;;;;;;12.20;99.90;;;;;;5017632;28;19909;-83
2022/10/01 03:20:15;;;;;;;;;;;12.20;99.90;;;;;;5018084;28;19924;-83
2022/10/01 03:22:43;;;;;;;;;;;12.20;99.90;;;;;;5017973;28;20348;-83
2022/10/01 03:25:08;;;;;;;;;;;12.10;99.90;;;;;;5017766;28;19955;-85
2022/10/01 03:27:34;;;;;;;;;;;12.10;99.90;;;;;;5017760;28;19917;-84
2022/10/01 03:29:59;;;;;;;;;;;12.10;99.90;;;;;;5017819;28;19909;-83
2022/10/01 03:32:25;;;;;;;;;;;12.20;99.90;;;;;;5035418;28;19913;-83
2022/10/01 03:34:50;;;;;;;;;;;12.20;99.90;;;;;;5035256;28;19909;-84
2022/10/01 03:37:16;;;;;;;;;;;12.10;99.90;;;;;;5035169;28;19949;-84
2022/10/01 03:39:41;;;;;;;;;;;12.10;99.90;;;;;;5017625;28;19963;-84
2022/10/01 03:42:07;;;;;;;;;;;12.10;99.90;;;;;;5035095;28;20334;-82
2022/10/01 03:44:32;;;;;;;;;;;12.10;99.90;;;;;;5035058;28;19917;-84
2022/10/01 03:46:58;;;;;;;;;;;12.10;99.90;;;;;;5017146;28;19909;-84
2022/10/01 03:49:23;;;;;;;;;;;12.10;99.90;;;;;;5017326;28;20368;-83
2022/10/01 03:51:49;;;;;;;;;;;12.10;99.90;;;;;;5017372;28;19913;-84
2022/10/01 03:54:15;;;;;;;;;;;12.10;99.90;;;;;;5034873;28;19973;-84
2022/10/01 03:56:41;;;;;;;;;;;12.10;99.90;;;;;;5017417;28;19989;-84
2022/10/01 03:59:07;;;;;;;;;;;12.00;99.90;;;;;;5017236;28;19913;-84
2022/10/01 04:01:33;;;;;;;;;;;11.90;99.90;;;;;;5016623;28;19960;-84
2022/10/01 04:03:58;;;;;;;;;;;11.80;99.90;;;;;;5016960;28;19992;-82
2022/10/01 04:06:24;;;;;;;;;;;11.90;99.90;;;;;;5016611;28;19909;-82
2022/10/01 04:08:49;;;;;;;;;;;11.90;99.90;;;;;;5017246;28;19917;-84
2022/10/01 04:11:15;;;;;;;;;;;11.90;99.90;;;;;;5016896;28;19932;-83
2022/10/01 04:13:40;;;;;;;;;;;11.90;99.90;;;;;;5016919;28;19953;-83
2022/10/01 04:16:06;;;;;;;;;;;11.90;99.90;;;;;;5016872;28;19970;-83
2022/10/01 04:18:33;;;;;;;;;;;11.90;99.90;;;;;;5017201;28;19909;-84
2022/10/01 04:20:59;;;;;;;;;;;11.80;99.90;;;;;;5034949;28;19996;-83
2022/10/01 04:23:25;;;;;;;;;;;11.70;99.90;;;;;;5023147;28;20003;-85
2022/10/01 04:25:50;;;;;;;;;;;11.60;99.90;;;;;;5021402;28;19966;-86
2022/10/01 04:28:19;;;;;;;;;;;11.60;99.90;;;;;;5040640;28;20331;-85
2022/10/01 04:31:23;;;;;;;;;;;11.60;99.90;;;;;;5023846;28;19909;-85
2022/10/01 04:33:33;;;;;;;;;;;11.60;99.90;;;;;;5040114;28;20345;-85
2022/10/01 04:35:59;;;;;;;;;;;11.60;99.90;;;;;;5021331;28;19916;-85
2022/10/01 04:38:25;;;;;;;;;;;11.60;99.90;;;;;;5036414;28;19909;-84
2022/10/01 04:40:50;;;;;;;;;;;11.70;99.90;;;;;;5018798;28;19913;-86
2022/10/01 04:43:16;;;;;;;;;;;11.80;99.90;;;;;;5020237;28;19944;-85
2022/10/01 04:45:41;;;;;;;;;;;11.80;99.90;;;;;;5037998;28;19924;-85
2022/10/01 04:48:07;;;;;;;;;;;11.90;99.90;;;;;;5039855;28;19913;-85
2022/10/01 04:50:32;;;;;;;;;;;12.10;99.90;;;;;;5023484;28;20331;-86
2022/10/01 04:52:58;;;;;;;;;;;12.20;99.90;;;;;;5022779;28;20403;-86
2022/10/01 04:55:24;;;;;;;;;;;12.30;99.90;;;;;;5025271;28;19909;-86
2022/10/01 04:57:49;;;;;;;;;;;12.30;99.90;;;;;;5026209;28;19936;-85
2022/10/01 05:00:16;;;;;;;;;;;12.30;99.90;;;;;;5043063;28;19963;-85
2022/10/01 05:02:43;;;;;;;;;;;12.30;99.90;;;;;;5027890;28;19963;-84
2022/10/01 05:05:08;;;;;;;;;;;12.30;99.90;;;;;;5041069;28;19916;-85
2022/10/01 05:07:34;;;;;;;;;;;12.30;99.90;;;;;;5046260;28;19913;-85
2022/10/01 05:10:00;;;;;;;;;;;12.30;99.90;;;;;;5025696;28;19916;-84
2022/10/01 05:12:28;;;;;;;;;;;12.30;99.90;;;;;;5042019;28;19913;-85
2022/10/01 05:14:54;;;;;;;;;;;12.20;99.90;;;;;;5045123;28;19917;-84
2022/10/01 05:17:20;;;;;;;;;;;12.20;99.90;;;;;;5026199;28;20364;-84
2022/10/01 05:19:46;;;;;;;;;;;12.20;99.90;;;;;;5026698;28;19923;-85
2022/10/01 05:22:11;;;;;;;;;;;12.20;99.90;;;;;;5023568;28;20368;-86
2022/10/01 05:24:37;;;;;;;;;;;12.20;99.90;;;;;;5023440;28;19955;-86
2022/10/01 05:27:03;;;;;;;;;;;12.20;99.90;;;;;;5024092;28;20035;-85
2022/10/01 05:29:29;;;;;;;;;;;12.10;99.90;;;;;;5023870;28;20384;-85
2022/10/01 05:31:55;;;;;;;;;;;12.00;99.90;;;;;;5023821;28;19913;-85
2022/10/01 05:34:20;;;;;;;;;;;12.00;99.90;;;;;;5023801;28;20426;-83
2022/10/01 05:36:45;;;;;;;;;;;12.00;99.90;;;;;;5040618;28;19932;-85
2022/10/01 05:39:11;;;;;;;;;;;12.00;99.90;;;;;;5020118;28;19909;-86
2022/10/01 05:41:37;;;;;;;;;;;12.00;99.90;;;;;;5023860;28;19995;-84
2022/10/01 05:44:04;;;;;;;;;;;12.00;99.90;;;;;;5041967;28;19936;-84
2022/10/01 05:46:31;;;;;;;;;;;11.90;99.90;;;;;;5024005;28;19996;-86
2022/10/01 05:48:57;;;;;;;;;;;12.00;99.90;;;;;;5040983;28;19909;-85
2022/10/01 05:51:23;;;;;;;;;;;12.00;99.90;;;;;;5020793;28;19948;-85
2022/10/01 05:53:48;;;;;;;;;;;12.00;99.90;;;;;;5021954;28;19909;-85
2022/10/01 05:56:14;;;;;;;;;;;12.00;99.90;;;;;;5020936;28;20415;-84
2022/10/01 05:58:39;;;;;;;;;;;12.00;99.90;;;;;;5019829;28;19956;-84
2022/10/01 06:01:05;;;;;;;;;;;12.10;99.90;;;;;;5016192;28;19917;-83
2022/10/01 06:03:30;;;;;;;;;;;12.10;99.90;;;;;;5019542;28;20023;-84
2022/10/01 06:05:56;;;;;;;;;;;12.20;99.90;;;;;;5016594;28;20392;-85
2022/10/01 06:08:21;;;;;;;;;;;12.20;99.90;;;;;;5036653;28;19956;-84
2022/10/01 06:10:47;;;;;;;;;;;12.20;99.90;;;;;;5035883;28;19909;-85
2022/10/01 06:13:16;;;;;;;;;;;12.30;99.90;;;;;;5016812;28;20232;-85
2022/10/01 06:15:42;;;;;;;;;;;12.30;99.90;;;;;;5017534;28;19924;-85
2022/10/01 06:18:09;;;;;;;;;;;12.40;99.90;;;;;;5017060;28;19909;-86
2022/10/01 06:20:35;;;;;;;;;;;12.40;99.90;;;;;;5016673;28;19963;-85
2022/10/01 06:23:01;;;;;;;;;;;12.50;99.90;;;;;;5015637;28;20372;-85
2022/10/01 06:25:28;;;;;;;;;;;12.50;99.90;;;;;;5019358;28;19909;-85
2022/10/01 06:27:56;;;;;;;;;;;12.50;99.90;;;;;;5019482;28;19910;-84
2022/10/01 06:30:30;;;;;;;;;;;12.60;99.90;;;;;;5019170;28;19909;-84
2022/10/01 06:33:01;;;;;;;;;;;12.70;99.90;;;;;;5019428;28;19919;-84
2022/10/01 06:35:27;;;;;;;;;;;12.80;99.90;;;;;;5018822;28;19909;-85
2022/10/01 06:37:52;;;;;;;;;;;12.90;99.90;;;;;;5028207;28;19996;-82
2022/10/01 06:40:18;;;;;;;;;;;13.00;99.90;;;;;;5031316;28;19956;-85
2022/10/01 06:42:47;;;;;;;;;;;13.00;99.90;;;;;;5021886;28;19929;-86
2022/10/01 06:45:13;;;;;;;;;;;13.10;99.90;;;;;;5020898;28;20395;-85
2022/10/01 06:47:38;;;;;;;;;;;13.10;99.90;;;;;;5022180;28;19913;-85
2022/10/01 06:50:04;;;;;;;;;;;13.20;99.90;;;;;;5021903;28;20394;-85
2022/10/01 06:52:48;;;;;;;;;;;13.20;99.90;;;;;;5022030;28;19963;-86
2022/10/01 06:55:14;;;;;;;;;;;13.30;99.90;;;;;;5021982;28;19909;-85
2022/10/01 06:57:40;;;;;;;;;;;13.30;99.90;;;;;;5041104;28;19915;-86
2022/10/01 07:00:05;;;;;;;;;;;13.40;99.90;;;;;;5023860;28;20364;-86
2022/10/01 07:02:31;;;;;;;;;;;13.50;99.90;;;;;;5024354;28;19936;-85
2022/10/01 07:04:59;;;;;;;;;;;13.50;99.90;;;;;;5024258;28;19917;-84
2022/10/01 07:07:29;;;;;;;;;;;13.60;99.90;;;;;;5024305;28;19909;-85
2022/10/01 07:09:55;;;;;;;;;;;13.70;99.90;;;;;;5023810;28;19909;-86
2022/10/01 07:12:21;;;;;;;;;;;13.70;99.90;;;;;;5024931;28;19919;-85
2022/10/01 07:14:46;;;;;;;;;;;13.70;99.90;;;;;;5052323;22;19947;-80
2022/10/01 07:17:12;;;;;;;;;;;13.90;99.90;;;;;;5050910;28;19913;-80
2022/10/01 07:19:37;;;;;;;;;;;13.90;99.90;;;;;;5035583;28;20000;-80
2022/10/01 07:22:03;;;;;;;;;;;14.00;99.90;;;;;;5035856;28;20745;-81
2022/10/01 07:24:28;;;;;;;;;;;14.10;99.90;;;;;;5035769;28;19916;-81
2022/10/01 07:26:54;;;;;;;;;;;14.10;99.90;;;;;;5035819;28;20287;-81
2022/10/01 07:29:21;;;;;;;;;;;14.10;99.90;;;;;;5035286;28;19920;-81
2022/10/01 07:31:47;;;;;;;;;;;14.10;99.90;;;;;;5035590;28;19972;-81
2022/10/01 07:34:13;;;;;;;;;;;14.10;99.90;;;;;;5034321;28;20360;-81
2022/10/01 07:36:39;;;;;;;;;;;14.10;99.90;;;;;;5034207;28;19935;-81
2022/10/01 07:39:04;;;;;;;;;;;14.10;99.90;;;;;;5035447;28;19935;-81
2022/10/01 07:41:30;;;;;;;;;;;14.20;99.90;;;;;;5035133;28;19923;-80
2022/10/01 07:43:55;;;;;;;;;;;14.20;99.90;;;;;;5033579;28;20338;-80
2022/10/01 07:46:20;;;;;;;;;;;14.30;99.90;;;;;;5035069;28;19915;-81
2022/10/01 07:48:47;;;;;;;;;;;14.40;99.90;;;;;;5035703;28;19955;-80
2022/10/01 07:51:12;;;;;;;;;;;14.40;99.90;;;;;;5035128;28;20355;-80
2022/10/01 07:53:38;;;;;;;;;;;14.50;99.90;;;;;;5035068;28;19956;-80
2022/10/01 07:56:03;;;;;;;;;;;14.50;99.90;;;;;;5033423;28;19979;-81
2022/10/01 07:58:29;;;;;;;;;;;14.50;99.90;;;;;;5035271;28;19956;-81
2022/10/01 08:00:56;;;;;;;;;;;14.50;99.90;;;;;;5034544;28;19910;-81
2022/10/01 08:03:22;;;;;;;;;;;14.60;99.90;;;;;;5035644;28;19909;-81
2022/10/01 08:05:48;;;;;;;;;;;14.60;99.90;;;;;;5035042;28;19935;-81
2022/10/01 08:08:14;;;;;;;;;;;14.70;99.90;;;;;;5035871;28;19913;-82
2022/10/01 08:10:40;;;;;;;;;;;14.80;99.90;;;;;;5035735;28;19916;-81
2022/10/01 08:13:07;;;;;;;;;;;14.90;99.90;;;;;;5034964;28;19913;-82
2022/10/01 08:15:33;;;;;;;;;;;14.90;99.90;;;;;;5034786;28;19917;-82
2022/10/01 08:17:59;;;;;;;;;;;14.90;99.90;;;;;;5034940;28;20349;-82
2022/10/01 08:20:25;;;;;;;;;;;14.90;99.90;;;;;;5035534;28;19913;-82
2022/10/01 08:22:50;;;;;;;;;;;15.00;99.90;;;;;;5034886;28;20087;-81
2022/10/01 08:25:16;;;;;;;;;;;15.00;99.90;;;;;;5033403;28;20396;-82
2022/10/01 08:27:41;;;;;;;;;;;15.00;99.90;;;;;;5033512;28;19912;-82
2022/10/01 08:30:07;;;;;;;;;;;14.90;99.90;;;;;;5035335;28;19916;-80
2022/10/01 08:32:32;;;;;;;;;;;14.80;99.90;;;;;;5034446;28;19913;-80
2022/10/01 08:34:58;;;;;;;;;;;14.70;99.90;;;;;;5034132;28;19932;-79
2022/10/01 08:37:25;;;;;;;;;;;14.70;99.90;;;;;;5033696;28;20284;-80
2022/10/01 08:39:51;;;;;;;;;;;14.60;99.90;;;;;;5034111;28;20443;-79
2022/10/01 08:42:23;;;;;;;;;;;14.60;99.90;;;;;;5033905;28;19913;-80
2022/10/01 08:44:50;;;;;;;;;;;14.50;99.90;;;;;;5033817;28;19920;-80
2022/10/01 08:47:18;;;;;;;;;;;14.50;99.90;;;;;;5033607;28;19917;-80
2022/10/01 08:49:47;;;;;;;;;;;14.60;99.90;;;;;;5032448;28;20020;-80
2022/10/01 08:52:21;;;;;;;;;;;14.60;99.90;;;;;;5033669;28;19920;-79
2022/10/01 08:54:55;;;;;;;;;;;14.60;99.90;;;;;;5032638;28;19909;-80
2022/10/01 08:57:23;;;;;;;;;;;14.70;99.90;;;;;;5033793;28;19999;-81
2022/10/01 08:59:50;;;;;;;;;;;14.70;99.90;;;;;;5033734;28;20262;-80
2022/10/01 09:02:16;;;;;;;;;;;14.60;99.90;;;;;;5033674;28;19914;-81
2022/10/01 09:04:41;;;;;;;;;;;14.60;99.90;;;;;;5033617;28;19932;-80
2022/10/01 09:07:30;;;;;;;;;;;14.70;99.90;;;;;;5033493;28;19909;-80
2022/10/01 09:10:08;;;;;;;;;;;14.70;99.90;;;;;;5023251;28;20534;-80
2022/10/01 09:12:40;;;;;;;;;;;14.60;99.90;;;;;;5033359;28;19921;-80
2022/10/01 09:15:05;;;;;;;;;;;14.60;99.90;;;;;;5033125;28;19917;-81
2022/10/01 09:17:34;;;;;;;;;;;14.70;99.90;;;;;;5033153;28;19996;-81
2022/10/01 09:20:05;;;;;;;;;;;14.70;99.90;;;;;;5033421;28;19909;-80
2022/10/01 09:22:36;;;;;;;;;;;14.80;99.90;;;;;;5033488;28;19910;-81
2022/10/01 09:25:10;;;;;;;;;;;15.00;99.90;;;;;;5031735;28;19909;-81
2022/10/01 09:27:36;;;;;;;;;;;15.10;99.90;;;;;;5033291;28;19959;-81
2022/10/01 09:30:05;;;;;;;;;;;15.20;99.90;;;;;;5033113;28;19910;-80
2022/10/01 09:32:45;;;;;;;;;;;15.10;99.90;;;;;;5033206;28;19920;-79
2022/10/01 09:35:31;;;;;;;;;;;15.00;99.90;;;;;;5032751;28;19909;-80
2022/10/01 09:38:01;;;;;;;;;;;15.10;99.90;;;;;;5033026;28;19910;-79
2022/10/01 09:40:32;;;;;;;;;;;15.10;99.90;;;;;;5031645;28;19914;-81
2022/10/01 09:42:59;;;;;;;;;;;15.10;99.90;;;;;;5032927;28;19996;-80
2022/10/01 09:45:25;;;;;;;;;;;15.40;99.90;;;;;;5032968;28;19956;-80
2022/10/01 09:47:53;;;;;;;;;;;15.50;99.90;;;;;;5032735;28;19948;-80
2022/10/01 09:50:20;;;;;;;;;;;15.70;99.90;;;;;;5032704;28;19913;-80
2022/10/01 09:52:48;;;;;;;;;;;15.80;99.90;;;;;;5032828;28;19913;-80
2022/10/01 09:55:35;;;;;;;;;;;15.90;99.90;;;;;;5032635;28;20434;-80
2022/10/01 09:58:03;;;;;;;;;;;15.90;99.90;;;;;;5032802;28;19909;-81
2022/10/01 10:00:29;;;;;;;;;;;15.80;99.90;;;;;;5032754;28;19913;-80
2022/10/01 10:02:55;;;;;;;;;;;15.70;99.90;;;;;;5032788;28;19916;-79
2022/10/01 10:05:23;;;;;;;;;;;15.60;99.90;;;;;;5032609;28;20391;-80
2022/10/01 10:07:57;;;;;;;;;;;15.70;99.90;;;;;;5032396;28;19909;-79
2022/10/01 10:10:38;;;;;;;;;;;15.90;99.90;;;;;;5031501;28;20376;-80
2022/10/01 10:13:09;;;;;;;;;;;15.70;99.90;;;;;;5032454;28;20067;-79
2022/10/01 10:15:40;;;;;;;;;;;15.70;99.90;;;;;;5031029;28;19924;-79
2022/10/01 10:18:11;;;;;;;;;;;15.60;99.90;;;;;;5032705;28;19910;-80
2022/10/01 10:20:39;;;;;;;;;;;15.50;99.90;;;;;;5032690;28;20297;-79
2022/10/01 10:23:07;;;;;;;;;;;15.40;99.90;;;;;;5032573;28;19916;-80
2022/10/01 10:25:33;;;;;;;;;;;15.30;99.90;;;;;;5032230;28;19909;-78
2022/10/01 10:28:01;;;;;;;;;;;15.20;99.90;;;;;;5032480;28;19959;-80
2022/10/01 10:30:27;;;;;;;;;;;15.10;99.90;;;;;;5032336;28;19909;-80
2022/10/01 10:33:00;;;;;;;;;;;15.40;99.90;;;;;;5032308;28;19920;-80
2022/10/01 10:35:27;;;;;;;;;;;15.70;99.90;;;;;;5031113;28;20393;-80
2022/10/01 10:37:53;;;;;;;;;;;16.00;99.90;;;;;;5032397;28;19909;-80
2022/10/01 10:40:23;;;;;;;;;;;16.10;99.90;;;;;;5032690;28;19913;-79
2022/10/01 10:42:50;;;;;;;;;;;16.00;99.90;;;;;;5030864;28;19941;-80
2022/10/01 10:45:17;;;;;;;;;;;15.90;99.90;;;;;;5032571;28;19956;-81
2022/10/01 10:47:44;;;;;;;;;;;15.90;99.90;;;;;;5032354;28;19947;-80
2022/10/01 10:50:17;;;;;;;;;;;16.10;99.90;;;;;;5031277;28;19909;-80
2022/10/01 10:52:43;;;;;;;;;;;16.20;99.90;;;;;;5031237;28;19917;-79
2022/10/01 10:55:18;;;;;;;;;;;16.20;99.90;;;;;;5031589;28;19909;-81
2022/10/01 10:57:43;;;;;;;;;;;16.30;99.90;;;;;;5032784;28;19920;-79
2022/10/01 11:00:20;;;;;;;;;;;16.40;99.90;;;;;;5031116;28;19909;-80
2022/10/01 11:02:56;;;;;;;;;;;16.70;99.90;;;;;;5032390;28;19963;-80
2022/10/01 11:05:23;;;;;;;;;;;17.00;99.90;;;;;;5031937;28;20040;-80
2022/10/01 11:07:51;;;;;;;;;;;17.10;99.90;;;;;;5031895;28;19909;-80
2022/10/01 11:10:20;;;;;;;;;;;17.20;99.90;;;;;;5032259;28;19909;-80
2022/10/01 11:12:55;;;;;;;;;;;17.40;99.90;;;;;;5034342;28;19927;-80
2022/10/01 11:15:39;;;;;;;;;;;17.30;99.90;;;;;;5035349;28;19924;-79
2022/10/01 11:18:12;;;;;;;;;;;17.10;99.90;;;;;;5035660;28;20388;-78
2022/10/01 11:20:53;;;;;;;;;;;17.10;99.90;;;;;;5035454;28;19935;-79
2022/10/01 11:23:28;;;;;;;;;;;16.70;99.90;;;;;;5035729;28;19916;-79
2022/10/01 11:25:54;;;;;;;;;;;16.70;99.90;;;;;;5035400;28;19963;-79
2022/10/01 11:28:22;;;;;;;;;;;16.50;99.90;;;;;;5035372;28;19916;-79
2022/10/01 11:31:11;;;;;;;;;;;16.50;99.90;;;;;;5035205;28;19909;-79
2022/10/01 11:33:50;;;;;;;;;;;16.60;99.90;;;;;;4997813;28;19913;-79
2022/10/01 11:36:24;;;;;;;;;;;16.50;99.90;;;;;;5035010;28;20357;-79
2022/10/01 11:39:04;;;;;;;;;;;16.40;99.90;;;;;;5035182;28;20060;-79
2022/10/01 11:41:30;;;;;;;;;;;16.20;99.90;;;;;;5034996;28;20305;-80
2022/10/01 11:44:13;;;;;;;;;;;16.20;99.90;;;;;;5034997;28;19920;-79
2022/10/01 11:46:38;;;;;;;;;;;16.20;99.90;;;;;;5033458;28;19999;-79
2022/10/01 11:49:19;;;;;;;;;;;16.20;99.90;;;;;;5035239;28;20368;-79
2022/10/01 11:51:47;;;;;;;;;;;16.20;99.90;;;;;;5033832;28;19917;-79
2022/10/01 11:54:15;;;;;;;;;;;16.00;99.90;;;;;;5034916;28;19958;-79
2022/10/01 11:59:37;;;;;;;;;;;15.50;99.90;;;;;;5035270;28;19928;-79
2022/10/01 12:02:13;;;;;;;;;;;15.40;99.90;;;;;;5034545;28;19909;-79
2022/10/01 12:04:42;;;;;;;;;;;15.30;99.90;;;;;;5034764;28;19909;-79
2022/10/01 12:07:15;;;;;;;;;;;15.20;99.90;;;;;;5034312;28;19909;-79
2022/10/01 12:09:59;;;;;;;;;;;15.00;99.90;;;;;;5034431;28;20001;-79
2022/10/01 12:12:27;;;;;;;;;;;14.90;99.90;;;;;;5034885;28;19913;-79
2022/10/01 12:15:12;;;;;;;;;;;14.90;99.90;;;;;;5032992;28;19928;-79
2022/10/01 12:17:42;;;;;;;;;;;14.80;99.90;;;;;;5034251;28;19909;-79
2022/10/01 12:20:17;;;;;;;;;;;14.80;99.90;;;;;;5033148;28;19909;-80
2022/10/01 12:22:43;;;;;;;;;;;14.70;99.90;;;;;;5034167;28;19910;-79
2022/10/01 12:25:12;;;;;;;;;;;14.60;99.90;;;;;;5034230;28;19915;-79
2022/10/01 12:27:56;;;;;;;;;;;14.50;99.90;;;;;;5032891;28;19952;-79
2022/10/01 12:30:23;;;;;;;;;;;14.50;99.90;;;;;;5034316;28;19909;-79
2022/10/01 12:32:49;;;;;;;;;;;14.50;99.90;;;;;;5034154;28;19964;-79
2022/10/01 12:35:15;;;;;;;;;;;14.50;99.90;;;;;;5033903;28;19956;-79
2022/10/01 12:38:02;;;;;;;;;;;14.50;99.90;;;;;;5033831;28;19913;-79
2022/10/01 12:40:39;;;;;;;;;;;14.60;99.90;;;;;;5032849;28;20027;-80
2022/10/01 12:43:04;;;;;;;;;;;14.90;99.90;;;;;;5034095;28;19909;-79
2022/10/01 12:45:39;;;;;;;;;;;15.20;99.90;;;;;;5032563;28;20387;-79
2022/10/01 12:48:07;;;;;;;;;;;15.50;99.90;;;;;;5033704;28;20008;-80
2022/10/01 12:50:37;;;;;;;;;;;16.10;99.90;;;;;;5033774;28;19913;-80
2022/10/01 12:53:12;;;;;;;;;;;16.50;99.90;;;;;;5033563;28;19913;-80
2022/10/01 12:55:56;;;;;;;;;;;16.80;99.90;;;;;;5033172;28;19909;-80
2022/10/01 12:58:32;;;;;;;;;;;17.00;99.90;;;;;;5033365;28;19947;-80
2022/10/01 13:01:00;;;;;;;;;;;17.10;99.90;;;;;;5033435;28;19941;-80
2022/10/01 13:03:36;;;;;;;;;;;17.10;99.90;;;;;;5031978;28;19994;-80
2022/10/01 13:06:04;;;;;;;;;;;17.20;99.90;;;;;;5032979;28;20003;-81
2022/10/01 13:08:36;;;;;;;;;;;17.40;99.90;;;;;;5033205;28;20330;-81
2022/10/01 13:11:20;;;;;;;;;;;17.40;99.90;;;;;;5033176;28;19909;-80
2022/10/01 13:13:50;;;;;;;;;;;17.30;99.90;;;;;;5032911;28;19956;-81
2022/10/01 13:16:21;;;;;;;;;;;17.20;99.90;;;;;;5033836;28;19913;-81
2022/10/01 13:18:56;;;;;;;;;;;17.10;99.90;;;;;;5033211;28;19909;-80
2022/10/01 13:21:37;;;;;;;;;;;17.00;99.90;;;;;;5033036;28;19932;-80
2022/10/01 13:24:13;;;;;;;;;;;17.70;99.90;;;;;;5033031;28;19915;-81
2022/10/01 13:26:57;;;;;;;;;;;18.40;99.90;;;;;;5031639;28;19909;-80
2022/10/01 13:29:36;;;;;;;;;;;18.60;99.90;;;;;;5033473;28;20055;-81
2022/10/01 13:32:03;;;;;;;;;;;18.40;99.90;;;;;;5032954;28;19912;-80
2022/10/01 13:34:39;;;;;;;;;;;18.20;99.90;;;;;;5030826;28;19913;-81
2022/10/01 13:37:18;;;;;;;;;;;18.10;99.90;;;;;;5031611;28;19978;-80
2022/10/01 13:39:46;;;;;;;;;;;18.10;99.90;;;;;;5033136;28;19917;-81
2022/10/01 13:42:16;;;;;;;;;;;18.10;99.90;;;;;;5032914;28;19913;-81
2022/10/01 13:44:41;;;;;;;;;;;18.20;99.90;;;;;;5032868;28;19921;-80
2022/10/01 13:47:08;;;;;;;;;;;18.30;99.90;;;;;;5033157;28;19909;-81
2022/10/01 13:49:35;;;;;;;;;;;18.30;99.90;;;;;;5033272;28;19910;-81
2022/10/01 13:52:01;;;;;;;;;;;18.20;99.90;;;;;;5031543;28;19912;-81
2022/10/01 13:54:38;;;;;;;;;;;18.20;99.90;;;;;;5032006;28;20211;-81
2022/10/01 13:57:24;;;;;;;;;;;18.10;99.90;;;;;;5031390;28;19920;-81
2022/10/01 14:00:01;;;;;;;;;;;18.20;99.90;;;;;;5033017;28;19947;-80
2022/10/01 14:02:30;;;;;;;;;;;19.40;99.90;;;;;;5032641;28;19909;-81
2022/10/01 14:05:13;;;;;;;;;;;21.00;99.90;;;;;;5032659;28;19910;-81
2022/10/01 14:07:39;;;;;;;;;;;21.90;99.90;;;;;;5032557;28;19963;-81
2022/10/01 14:10:05;;;;;;;;;;;23.20;99.90;;;;;;5032822;28;19913;-81
2022/10/01 14:15:57;;;;;;;;;;;25.60;99.90;;;;;;5032635;28;19947;-81
2022/10/01 14:18:22;;;;;;;;;;;25.90;99.90;;;;;;5032708;28;20442;-81
2022/10/01 14:21:01;;;;;;;;;;;26.40;99.90;;;;;;5031210;28;20361;-82
2022/10/01 14:23:37;;;;;;;;;;;27.20;99.90;;;;;;5032867;28;20020;-81
2022/10/01 14:26:09;;;;;;;;;;;28.40;99.90;;;;;;5032635;28;19916;-82
2022/10/01 14:28:35;;;;;;;;;;;29.30;99.90;;;;;;5031606;28;19909;-82
2022/10/01 14:31:06;;;;;;;;;;;29.70;99.90;;;;;;5031227;28;19991;-82
2022/10/01 14:33:50;;;;;;;;;;;29.80;98.10;;;;;;5032431;28;19914;-81
2022/10/01 14:36:22;;;;;;;;;;;29.70;98.00;;;;;;5032475;28;20291;-82
2022/10/01 14:38:48;;;;;;;;;;;28.90;98.10;;;;;;5032917;28;19913;-81
2022/10/01 14:41:17;;;;;;;;;;;27.60;99.10;;;;;;5032590;28;20288;-82
2022/10/01 14:43:43;;;;;;;;;;;26.60;99.90;;;;;;5032385;28;20366;-82